Terminal Aerodrome Forecast
Issued by NWS

Home | Current Version | Previous Version | Text Only | Print | Product List | Glossary On
Versions: 1 2 3 4 5 6 7 8 9 10 11 12 13 14 15 16 17 18 19 20 21 22 23 24 25 26 27 28 29 30 31 32 33 34 35 36 37 38
000
FTUS45 KGJT 271920 AAB
TAFASE
TAF AMD
KASE 271920Z 2719/2818 19006KT P6SM VCTS BKN040CB
      TEMPO 2719/2720 01007G15KT -TSRA OVC020CB
     FM272000 33007KT P6SM VCTS BKN060CB
     FM280000 33007KT P6SM VCSH BKN110
     FM280400 23004KT P6SM SCT150
     FM280800 17004KT P6SM FEW200
     FM281700 35004KT P6SM FEW250=

USA.gov is the U.S. government's official web portal to all federal, state and local government web resources and services.